createdAt,value
2023-02-15T00:00:09.747Z,1.00
2023-02-15T00:02:37.166Z,0.90
2023-02-15T00:05:04.407Z,0.90
2023-02-15T00:07:31.639Z,0.90
2023-02-15T00:09:58.866Z,1.00
2023-02-15T00:12:26.242Z,0.90
2023-02-15T00:14:53.609Z,1.00
2023-02-15T00:17:21.488Z,1.00
2023-02-15T00:19:48.632Z,0.90
2023-02-15T00:22:16.043Z,1.00
2023-02-15T00:24:43.166Z,1.00
2023-02-15T00:27:10.403Z,1.00
2023-02-15T00:29:37.980Z,1.10
2023-02-15T00:32:05.332Z,1.10
2023-02-15T00:34:32.481Z,1.10
2023-02-15T00:36:59.679Z,1.10
2023-02-15T00:39:28.362Z,1.10
2023-02-15T00:41:55.670Z,1.10
2023-02-15T00:44:22.865Z,1.10
2023-02-15T00:46:50.002Z,1.10
2023-02-15T00:49:17.179Z,1.10
2023-02-15T00:51:44.296Z,1.10
2023-02-15T00:54:11.517Z,1.10
2023-02-15T00:56:38.684Z,1.20
2023-02-15T00:59:06.538Z,1.20
2023-02-15T01:01:33.889Z,1.20
2023-02-15T01:04:01.316Z,1.30
2023-02-15T01:06:28.538Z,1.20
2023-02-15T01:08:55.808Z,1.20
2023-02-15T01:11:24.077Z,1.20
2023-02-15T01:13:56.703Z,1.30
2023-02-15T01:16:26.713Z,1.30
2023-02-15T01:18:55.819Z,1.20
2023-02-15T01:21:25.062Z,1.30
2023-02-15T01:23:52.617Z,1.30
2023-02-15T01:26:19.910Z,1.30
2023-02-15T01:28:47.581Z,1.30
2023-02-15T01:31:19.612Z,1.20
2023-02-15T01:33:48.294Z,1.20
2023-02-15T01:36:16.092Z,1.20
2023-02-15T01:38:43.274Z,1.20
2023-02-15T01:41:27.385Z,1.10
2023-02-15T01:44:02.729Z,1.10
2023-02-15T01:46:39.422Z,1.10
2023-02-15T01:49:16.298Z,1.00
2023-02-15T01:51:47.313Z,1.00
2023-02-15T01:54:30.690Z,1.10
2023-02-15T01:57:03.620Z,1.00
2023-02-15T01:59:32.347Z,0.90
2023-02-15T02:02:02.189Z,0.90
2023-02-15T02:04:39.930Z,0.90
2023-02-15T02:07:09.255Z,0.90
2023-02-15T02:09:38.021Z,1.00
2023-02-15T02:12:05.811Z,0.90
2023-02-15T02:14:33.120Z,0.90
2023-02-15T02:17:07.691Z,0.90
2023-02-15T02:20:07.169Z,0.90
2023-02-15T02:23:06.858Z,1.00
2023-02-15T02:25:58.097Z,1.00
2023-02-15T02:28:37.171Z,1.00
2023-02-15T02:31:22.442Z,1.00
2023-02-15T02:33:55.556Z,1.10
2023-02-15T02:36:44.382Z,1.00
2023-02-15T02:39:38.585Z,1.00
2023-02-15T02:42:36.995Z,1.10
2023-02-15T02:45:06.669Z,1.00
2023-02-15T02:47:54.072Z,1.00
2023-02-15T02:50:30.120Z,1.00
2023-02-15T02:52:59.393Z,1.10
2023-02-15T02:55:50.033Z,1.10
2023-02-15T02:58:41.213Z,1.10
2023-02-15T03:01:18.331Z,1.10
2023-02-15T03:03:52.502Z,1.10
2023-02-15T03:06:29.668Z,1.10
2023-02-15T03:09:08.338Z,1.10
2023-02-15T03:11:35.631Z,1.10
2023-02-15T03:14:02.873Z,1.10
2023-02-15T03:16:30.284Z,1.10
2023-02-15T03:19:20.303Z,1.10
2023-02-15T03:21:58.784Z,1.20
2023-02-15T03:24:41.136Z,1.10
2023-02-15T03:27:14.330Z,1.20
2023-02-15T03:29:41.820Z,1.20
2023-02-15T03:32:12.537Z,1.20
2023-02-15T03:34:39.855Z,1.10
2023-02-15T03:37:16.039Z,1.10
2023-02-15T03:40:19.407Z,1.10
2023-02-15T03:42:50.107Z,1.10
2023-02-15T03:45:22.426Z,1.10
2023-02-15T03:47:51.856Z,1.10
2023-02-15T03:50:50.673Z,1.20
2023-02-15T03:53:22.553Z,1.20
2023-02-15T03:55:54.570Z,1.20
2023-02-15T03:58:40.681Z,1.20
2023-02-15T04:01:58.631Z,1.30
2023-02-15T04:04:38.946Z,1.30
2023-02-15T04:07:09.022Z,1.30
2023-02-15T04:09:55.205Z,1.40
2023-02-15T04:12:22.553Z,1.40
2023-02-15T04:15:08.398Z,1.40
2023-02-15T04:17:38.641Z,1.30
2023-02-15T04:20:24.890Z,1.30
2023-02-15T04:23:12.298Z,1.30
2023-02-15T04:25:39.466Z,1.30
2023-02-15T04:28:08.799Z,1.30
2023-02-15T04:30:36.232Z,1.30
2023-02-15T04:33:03.472Z,1.30
2023-02-15T04:35:32.741Z,1.40
2023-02-15T04:38:00.103Z,1.40
2023-02-15T04:40:27.307Z,1.50
2023-02-15T04:42:54.428Z,1.40
2023-02-15T04:45:21.612Z,1.40
2023-02-15T04:47:48.819Z,1.40
2023-02-15T04:50:16.079Z,1.50
2023-02-15T04:52:43.519Z,1.50
2023-02-15T04:55:10.838Z,1.40
2023-02-15T04:57:38.193Z,1.40
2023-02-15T05:00:05.870Z,1.40
2023-02-15T05:02:33.125Z,1.40
2023-02-15T05:05:00.256Z,1.40
2023-02-15T05:07:27.732Z,1.40
2023-02-15T05:09:54.842Z,1.40
2023-02-15T05:12:22.023Z,1.40
2023-02-15T05:14:49.250Z,1.50
2023-02-15T05:17:16.484Z,1.50
2023-02-15T05:19:43.874Z,1.40
2023-02-15T05:22:11.002Z,1.40
2023-02-15T05:24:56.817Z,1.50
2023-02-15T05:27:45.080Z,1.50
2023-02-15T05:30:13.237Z,1.60
2023-02-15T05:32:40.782Z,1.50
2023-02-15T05:35:08.774Z,1.50
2023-02-15T05:37:35.974Z,1.60
2023-02-15T05:40:03.423Z,1.50
2023-02-15T05:42:30.631Z,1.50
2023-02-15T05:44:58.103Z,1.50
2023-02-15T05:47:25.425Z,1.50
2023-02-15T05:49:52.525Z,1.60
2023-02-15T05:52:20.326Z,1.60
2023-02-15T05:54:47.557Z,1.60
2023-02-15T05:57:15.159Z,1.60
2023-02-15T05:59:42.316Z,1.60
2023-02-15T06:02:09.626Z,1.60
2023-02-15T06:04:36.749Z,1.70
2023-02-15T06:07:03.980Z,1.70
2023-02-15T06:09:31.472Z,1.70
2023-02-15T06:11:58.580Z,1.70
2023-02-15T06:14:26.091Z,1.70
2023-02-15T06:16:53.217Z,1.60
2023-02-15T06:19:20.544Z,1.70
2023-02-15T06:21:47.874Z,1.60
2023-02-15T06:24:15.224Z,1.70
2023-02-15T06:26:42.465Z,1.70
2023-02-15T06:29:09.845Z,1.60
2023-02-15T06:31:37.276Z,1.70
2023-02-15T06:34:04.677Z,1.70
2023-02-15T06:36:32.725Z,1.70
2023-02-15T06:39:00.312Z,1.60
2023-02-15T06:41:29.187Z,1.70
2023-02-15T06:43:56.493Z,1.80
2023-02-15T06:46:23.667Z,1.80
2023-02-15T06:48:50.986Z,1.80
2023-02-15T06:51:18.202Z,1.80
2023-02-15T06:53:45.447Z,1.70
2023-02-15T06:56:13.031Z,1.70
2023-02-15T06:58:41.593Z,1.70
2023-02-15T07:01:13.219Z,1.80
2023-02-15T07:03:40.350Z,1.80
2023-02-15T07:06:09.654Z,1.90
2023-02-15T07:08:38.298Z,1.80
2023-02-15T07:11:25.015Z,1.90
2023-02-15T07:13:53.572Z,1.90
2023-02-15T07:16:21.604Z,2.00
2023-02-15T07:18:49.003Z,2.00
2023-02-15T07:21:16.263Z,2.00
2023-02-15T07:23:43.590Z,1.90
2023-02-15T07:26:10.756Z,2.00
2023-02-15T07:28:38.071Z,2.10
2023-02-15T07:31:06.655Z,2.10
2023-02-15T07:33:35.381Z,2.10
2023-02-15T07:36:04.942Z,2.00
2023-02-15T07:38:37.480Z,2.00
2023-02-15T07:41:07.573Z,2.00
2023-02-15T07:43:41.625Z,2.00
2023-02-15T07:46:12.752Z,2.10
2023-02-15T07:48:41.120Z,2.20
2023-02-15T07:51:10.208Z,2.00
2023-02-15T07:53:39.018Z,2.00
2023-02-15T07:56:16.227Z,2.00
2023-02-15T07:58:52.285Z,2.10
2023-02-15T08:01:25.404Z,2.10
2023-02-15T08:03:54.014Z,2.20
2023-02-15T08:06:23.834Z,2.20
2023-02-15T08:08:51.063Z,2.30
2023-02-15T08:11:27.283Z,2.30
2023-02-15T08:14:04.775Z,2.40
2023-02-15T08:16:44.114Z,2.50
2023-02-15T08:19:20.402Z,2.50
2023-02-15T08:21:56.141Z,2.40
2023-02-15T08:24:25.613Z,2.40
2023-02-15T08:26:53.406Z,2.40
2023-02-15T08:29:25.974Z,2.50
2023-02-15T08:32:07.427Z,2.50
2023-02-15T08:34:38.962Z,2.40
2023-02-15T08:37:07.241Z,2.40
2023-02-15T08:39:34.597Z,2.40
2023-02-15T08:42:02.226Z,2.50
2023-02-15T08:44:29.422Z,2.50
2023-02-15T08:46:58.604Z,2.50
2023-02-15T08:49:25.866Z,2.50
2023-02-15T08:51:53.322Z,2.50
2023-02-15T08:54:22.691Z,2.50
2023-02-15T08:56:50.148Z,2.50
2023-02-15T08:59:20.281Z,2.60
2023-02-15T09:01:49.098Z,2.70
2023-02-15T09:04:17.378Z,2.70
2023-02-15T09:06:48.324Z,2.70
2023-02-15T09:09:17.392Z,2.80
2023-02-15T09:11:47.150Z,2.80
2023-02-15T09:14:21.252Z,2.80
2023-02-15T09:16:50.699Z,2.80
2023-02-15T09:19:19.253Z,2.70
2023-02-15T09:21:47.209Z,2.70
2023-02-15T09:24:16.486Z,2.70
2023-02-15T09:26:46.388Z,2.60
2023-02-15T09:29:14.992Z,2.60
2023-02-15T09:31:46.142Z,2.60
2023-02-15T09:34:14.980Z,2.60
2023-02-15T09:36:42.271Z,2.70
2023-02-15T09:39:12.516Z,2.60
2023-02-15T09:42:04.317Z,2.70
2023-02-15T09:44:43.100Z,2.50
2023-02-15T09:47:31.734Z,2.50
2023-02-15T09:50:08.316Z,2.60
2023-02-15T09:52:54.179Z,2.70
2023-02-15T09:55:30.394Z,2.60
2023-02-15T09:58:08.299Z,2.70
2023-02-15T10:00:38.442Z,2.80
2023-02-15T10:03:15.753Z,2.70
2023-02-15T10:05:55.752Z,2.90
2023-02-15T10:08:28.788Z,2.80
2023-02-15T10:11:32.067Z,2.90
2023-02-15T10:14:18.016Z,2.70
2023-02-15T10:17:03.422Z,2.60
2023-02-15T10:19:53.321Z,2.70
2023-02-15T10:22:23.369Z,2.80
2023-02-15T10:25:15.051Z,2.80
2023-02-15T10:27:50.278Z,2.80
2023-02-15T10:30:35.935Z,2.70
2023-02-15T10:33:17.043Z,2.70
2023-02-15T10:36:02.394Z,2.70
2023-02-15T10:39:09.777Z,2.80
2023-02-15T10:41:58.865Z,2.90
2023-02-15T10:44:33.181Z,2.90
2023-02-15T10:47:34.184Z,3.10
2023-02-15T10:50:22.313Z,3.00
2023-02-15T10:53:11.293Z,2.90
2023-02-15T10:56:01.173Z,2.90
2023-02-15T10:58:46.855Z,2.90
2023-02-15T11:01:23.990Z,3.00
2023-02-15T11:04:09.935Z,3.10
2023-02-15T11:06:42.031Z,3.10
2023-02-15T11:09:16.703Z,3.00
2023-02-15T11:11:48.441Z,2.90
2023-02-15T11:14:28.929Z,3.00
2023-02-15T11:17:03.376Z,3.00
2023-02-15T11:19:35.603Z,3.10
2023-02-15T11:22:06.513Z,3.20
2023-02-15T11:24:42.274Z,3.20
2023-02-15T11:27:25.152Z,3.20
2023-02-15T11:30:15.726Z,3.20
2023-02-15T11:32:50.335Z,3.10
2023-02-15T11:35:44.287Z,3.20
2023-02-15T11:38:26.985Z,3.10
2023-02-15T11:41:08.748Z,3.20
2023-02-15T11:43:39.228Z,3.10
2023-02-15T11:46:10.229Z,3.10
2023-02-15T11:48:38.840Z,3.10
2023-02-15T11:51:06.732Z,3.10
2023-02-15T11:53:39.035Z,3.10
2023-02-15T11:56:13.638Z,3.10
2023-02-15T11:59:01.390Z,3.10
2023-02-15T12:01:38.024Z,3.10
2023-02-15T12:04:31.215Z,3.10
2023-02-15T12:07:23.833Z,3.10
2023-02-15T12:09:54.720Z,3.20
2023-02-15T12:12:24.691Z,3.10
2023-02-15T12:15:00.008Z,3.20
2023-02-15T12:17:51.536Z,3.20
2023-02-15T12:20:18.640Z,3.30
2023-02-15T12:23:16.538Z,3.30
2023-02-15T12:25:53.060Z,3.20
2023-02-15T12:28:41.821Z,3.10
2023-02-15T12:31:35.662Z,3.20
2023-02-15T12:34:10.890Z,3.30
2023-02-15T12:36:51.929Z,3.20
2023-02-15T12:39:28.606Z,3.10
2023-02-15T12:41:55.731Z,3.10
2023-02-15T12:44:26.424Z,3.00
2023-02-15T12:47:16.592Z,3.00
2023-02-15T12:49:48.165Z,3.00
2023-02-15T12:52:21.556Z,3.00
2023-02-15T12:54:49.337Z,2.80
2023-02-15T12:57:31.835Z,2.80
2023-02-15T13:00:25.373Z,2.90
2023-02-15T13:02:57.224Z,2.90
2023-02-15T13:05:35.917Z,2.90
2023-02-15T13:08:12.310Z,2.90
2023-02-15T13:11:12.790Z,2.90
2023-02-15T13:13:57.011Z,2.90
2023-02-15T13:16:45.134Z,2.90
2023-02-15T13:19:15.931Z,2.90
2023-02-15T13:21:47.083Z,2.90
2023-02-15T13:24:23.483Z,2.90
2023-02-15T13:26:51.333Z,2.80
2023-02-15T13:29:39.711Z,2.80
2023-02-15T13:32:31.154Z,2.90
2023-02-15T13:35:06.347Z,2.90
2023-02-15T13:38:17.292Z,2.80
2023-02-15T13:40:51.180Z,2.90
2023-02-15T13:43:58.546Z,2.80
2023-02-15T13:47:16.766Z,2.80
2023-02-15T13:49:56.908Z,2.80
2023-02-15T13:52:29.661Z,2.70
2023-02-15T13:55:25.542Z,2.60
2023-02-15T13:58:24.208Z,2.70
2023-02-15T14:01:06.174Z,2.60
2023-02-15T14:03:59.066Z,2.50
2023-02-15T14:06:35.593Z,2.40
2023-02-15T14:09:24.146Z,2.40
2023-02-15T14:12:06.629Z,2.50
2023-02-15T14:14:44.305Z,2.60
2023-02-15T14:17:22.294Z,2.50
2023-02-15T14:20:04.952Z,2.40
2023-02-15T14:22:51.640Z,2.50
2023-02-15T14:25:49.619Z,2.50
2023-02-15T14:28:43.434Z,2.50
2023-02-15T14:31:14.944Z,2.40
2023-02-15T14:33:52.093Z,2.40
2023-02-15T14:36:21.179Z,2.30
2023-02-15T14:39:06.494Z,2.30
2023-02-15T14:41:51.408Z,2.30
2023-02-15T14:44:38.881Z,2.20
2023-02-15T14:47:12.140Z,2.30
2023-02-15T14:49:41.204Z,2.30
2023-02-15T14:52:11.933Z,2.20
2023-02-15T14:54:38.978Z,2.20
2023-02-15T14:57:07.491Z,2.20
2023-02-15T14:59:59.669Z,2.20
2023-02-15T15:02:49.573Z,2.20
2023-02-15T15:05:36.090Z,2.10
2023-02-15T15:08:05.980Z,2.10
2023-02-15T15:10:45.945Z,2.10
2023-02-15T15:13:58.647Z,2.10
2023-02-15T15:16:36.986Z,2.00
2023-02-15T15:19:05.980Z,2.00
2023-02-15T15:21:50.984Z,2.00
2023-02-15T15:24:40.177Z,1.90
2023-02-15T15:27:46.100Z,1.90
2023-02-15T15:30:16.139Z,1.80
2023-02-15T15:32:59.893Z,1.90
2023-02-15T15:35:45.006Z,1.90
2023-02-15T15:38:40.030Z,1.80
2023-02-15T15:41:33.541Z,1.80
2023-02-15T15:44:41.666Z,1.80
2023-02-15T15:47:11.686Z,1.80
2023-02-15T15:49:41.442Z,1.90
2023-02-15T15:52:21.172Z,1.90
2023-02-15T15:54:53.996Z,1.70
2023-02-15T15:57:36.509Z,1.70
2023-02-15T16:00:04.580Z,1.70
2023-02-15T16:02:31.784Z,1.70
2023-02-15T16:05:08.644Z,1.70
2023-02-15T16:07:35.811Z,1.70
2023-02-15T16:10:04.782Z,1.70
2023-02-15T16:12:36.056Z,1.70
2023-02-15T16:15:14.968Z,1.60
2023-02-15T16:17:45.773Z,1.70
2023-02-15T16:20:19.919Z,1.60
2023-02-15T16:22:49.569Z,1.60
2023-02-15T16:25:31.419Z,1.60
2023-02-15T16:28:07.583Z,1.60
2023-02-15T16:30:37.365Z,1.60
2023-02-15T16:33:11.555Z,1.60
2023-02-15T16:35:41.706Z,1.50
2023-02-15T16:38:12.692Z,1.50
2023-02-15T16:40:53.629Z,1.60
2023-02-15T16:43:32.339Z,1.60
2023-02-15T16:46:08.667Z,1.50
2023-02-15T16:48:42.209Z,1.60
2023-02-15T16:51:10.180Z,1.60
2023-02-15T16:53:38.769Z,1.60
2023-02-15T16:56:07.046Z,1.50
2023-02-15T16:58:50.474Z,1.50
2023-02-15T17:01:21.209Z,1.50
2023-02-15T17:03:50.737Z,1.50
2023-02-15T17:06:30.521Z,1.50
2023-02-15T17:09:19.532Z,1.50
2023-02-15T17:11:47.203Z,1.50
2023-02-15T17:14:29.521Z,1.50
2023-02-15T17:17:09.050Z,1.50
2023-02-15T17:19:51.344Z,1.50
2023-02-15T17:22:28.173Z,1.50
2023-02-15T17:25:01.847Z,1.40
2023-02-15T17:27:36.128Z,1.40
2023-02-15T17:30:16.892Z,1.40
2023-02-15T17:32:59.915Z,1.40
2023-02-15T17:35:32.566Z,1.50
2023-02-15T17:38:21.596Z,1.50
2023-02-15T17:40:49.830Z,1.40
2023-02-15T17:43:17.492Z,1.40
2023-02-15T17:45:49.977Z,1.40
2023-02-15T17:48:35.686Z,1.40
2023-02-15T17:51:05.972Z,1.30
2023-02-15T17:53:34.068Z,1.30
2023-02-15T17:56:10.773Z,1.30
2023-02-15T17:58:39.461Z,1.40
2023-02-15T18:01:37.643Z,1.40
2023-02-15T18:04:24.826Z,1.30
2023-02-15T18:07:14.270Z,1.30
2023-02-15T18:10:00.678Z,1.40
2023-02-15T18:12:33.948Z,1.40
2023-02-15T18:15:04.054Z,1.30
2023-02-15T18:17:40.782Z,1.40
2023-02-15T18:20:18.197Z,1.40
2023-02-15T18:22:50.037Z,1.40
2023-02-15T18:25:20.723Z,1.40
2023-02-15T18:27:49.977Z,1.40
2023-02-15T18:30:20.424Z,1.30
2023-02-15T18:32:51.795Z,1.30
2023-02-15T18:35:23.259Z,1.20
2023-02-15T18:37:52.533Z,1.30
2023-02-15T18:40:23.320Z,1.30
2023-02-15T18:42:50.957Z,1.30
2023-02-15T18:45:23.747Z,1.20
2023-02-15T18:47:51.451Z,1.20
2023-02-15T18:50:21.073Z,1.20
2023-02-15T18:52:52.964Z,1.20
2023-02-15T18:55:25.123Z,1.20
2023-02-15T18:57:56.151Z,1.20
2023-02-15T19:00:30.041Z,1.20
2023-02-15T19:02:57.822Z,1.20
2023-02-15T19:05:30.302Z,1.20
2023-02-15T19:08:00.683Z,1.20
2023-02-15T19:10:35.130Z,1.20
2023-02-15T19:13:02.681Z,1.20
2023-02-15T19:15:31.183Z,1.20
2023-02-15T19:17:58.329Z,1.20
2023-02-15T19:20:32.397Z,1.20
2023-02-15T19:23:01.852Z,1.20
2023-02-15T19:25:31.697Z,1.20
2023-02-15T19:27:59.409Z,1.20
2023-02-15T19:30:31.966Z,1.20
2023-02-15T19:33:03.284Z,1.10
2023-02-15T19:35:34.516Z,1.10
2023-02-15T19:38:12.754Z,1.10
2023-02-15T19:40:40.209Z,1.10
2023-02-15T19:43:18.608Z,1.10
2023-02-15T19:45:46.556Z,1.10
2023-02-15T19:48:15.031Z,1.10
2023-02-15T19:50:46.203Z,1.10
2023-02-15T19:53:27.686Z,1.10
2023-02-15T19:55:55.420Z,1.00
2023-02-15T19:58:23.261Z,1.00
2023-02-15T20:00:51.691Z,1.00
2023-02-15T20:03:19.105Z,1.00
2023-02-15T20:05:47.337Z,1.10
2023-02-15T20:08:19.712Z,1.10
2023-02-15T20:10:47.155Z,1.10
2023-02-15T20:13:20.165Z,1.10
2023-02-15T20:15:48.225Z,1.10
2023-02-15T20:18:15.661Z,1.20
2023-02-15T20:20:48.149Z,1.10
2023-02-15T20:23:30.663Z,1.20
2023-02-15T20:26:00.822Z,1.10
2023-02-15T20:28:31.439Z,1.00
2023-02-15T20:30:59.202Z,1.00
2023-02-15T20:33:27.071Z,1.00
2023-02-15T20:35:56.575Z,1.00
2023-02-15T20:38:28.263Z,1.00
2023-02-15T20:41:15.672Z,1.00
2023-02-15T20:43:43.517Z,1.10
2023-02-15T20:46:10.814Z,0.90
2023-02-15T20:48:38.203Z,0.90
2023-02-15T20:51:06.562Z,1.00
2023-02-15T20:53:33.820Z,1.00
2023-02-15T20:56:01.402Z,1.00
2023-02-15T20:58:30.889Z,1.10
2023-02-15T21:00:59.491Z,1.00
2023-02-15T21:03:31.138Z,1.10
2023-02-15T21:05:59.332Z,1.10
2023-02-15T21:08:27.400Z,1.20
2023-02-15T21:10:57.684Z,1.10
2023-02-15T21:13:32.963Z,1.00
2023-02-15T21:16:01.441Z,0.90
2023-02-15T21:18:33.779Z,0.90
2023-02-15T21:21:04.973Z,0.90
2023-02-15T21:23:40.573Z,0.90
2023-02-15T21:26:22.582Z,1.00
2023-02-15T21:28:50.639Z,1.00
2023-02-15T21:31:23.658Z,0.90
2023-02-15T21:33:51.092Z,0.90
2023-02-15T21:36:22.217Z,0.90
2023-02-15T21:38:50.009Z,0.90
2023-02-15T21:41:38.121Z,0.90
2023-02-15T21:44:43.414Z,0.90
2023-02-15T21:47:47.472Z,0.90
2023-02-15T21:50:36.536Z,0.80
2023-02-15T21:53:06.817Z,0.80
2023-02-15T21:55:34.503Z,0.80
2023-02-15T21:58:02.569Z,0.80
2023-02-15T22:00:30.879Z,0.90
2023-02-15T22:03:01.236Z,0.80
2023-02-15T22:05:49.892Z,0.90
2023-02-15T22:08:20.374Z,0.80
2023-02-15T22:10:48.433Z,0.80
2023-02-15T22:13:19.999Z,0.80
2023-02-15T22:15:47.569Z,0.80
2023-02-15T22:18:28.254Z,0.80
2023-02-15T22:20:56.201Z,0.80
2023-02-15T22:23:24.099Z,0.80
2023-02-15T22:25:58.406Z,0.80
2023-02-15T22:28:31.490Z,0.80
2023-02-15T22:30:58.923Z,0.80
2023-02-15T22:33:32.057Z,0.80
2023-02-15T22:36:00.042Z,0.90
2023-02-15T22:38:27.847Z,0.80
2023-02-15T22:40:58.669Z,0.80
2023-02-15T22:43:26.043Z,0.90
2023-02-15T22:45:58.283Z,0.90
2023-02-15T22:48:25.475Z,0.80
2023-02-15T22:50:52.767Z,0.80
2023-02-15T22:53:19.853Z,0.80
2023-02-15T22:55:47.634Z,0.70
2023-02-15T22:58:20.554Z,0.80
2023-02-15T23:00:48.022Z,0.80
2023-02-15T23:03:21.126Z,0.80
2023-02-15T23:05:48.782Z,0.80
2023-02-15T23:08:16.761Z,0.80
2023-02-15T23:10:46.508Z,0.70
2023-02-15T23:13:25.086Z,0.80
2023-02-15T23:15:56.066Z,0.70
2023-02-15T23:18:39.709Z,0.80
2023-02-15T23:21:16.446Z,0.70
2023-02-15T23:23:47.464Z,0.70
2023-02-15T23:26:22.925Z,0.70
2023-02-15T23:28:51.833Z,0.80
2023-02-15T23:31:28.410Z,0.80
2023-02-15T23:34:00.150Z,0.80
2023-02-15T23:36:32.965Z,0.70
2023-02-15T23:39:40.476Z,0.70
2023-02-15T23:42:15.256Z,0.70
2023-02-15T23:44:44.719Z,0.80
2023-02-15T23:47:42.424Z,0.80
2023-02-15T23:50:30.235Z,0.90
2023-02-15T23:52:58.055Z,0.80
2023-02-15T23:55:37.319Z,0.80
2023-02-15T23:58:06.661Z,0.80
